createdAt,value
2019-03-06T00:01:22.747Z,95067.70
2019-03-06T00:03:50.205Z,95064.02
2019-03-06T00:06:17.781Z,95060.49
2019-03-06T00:08:45.306Z,95071.69
2019-03-06T00:11:12.808Z,95069.87
2019-03-06T00:13:40.257Z,95073.14
2019-03-06T00:16:07.903Z,95064.05
2019-03-06T00:18:35.249Z,95068.34
2019-03-06T00:21:03.296Z,95067.53
2019-03-06T00:23:30.755Z,95069.46
2019-03-06T00:25:58.377Z,95077.13
2019-03-06T00:28:25.813Z,95076.67
2019-03-06T00:30:53.354Z,95089.50
2019-03-06T00:33:20.933Z,95071.73
2019-03-06T00:35:49.611Z,95069.84
2019-03-06T00:38:17.067Z,95054.99
2019-03-06T00:40:49.825Z,95056.57
2019-03-06T00:43:17.242Z,95059.91
2019-03-06T00:45:44.949Z,95066.58
2019-03-06T00:48:12.402Z,95061.08
2019-03-06T00:50:39.925Z,95070.72
2019-03-06T00:53:07.324Z,95069.03
2019-03-06T00:55:34.765Z,95057.98
2019-03-06T00:58:02.317Z,95057.23
2019-03-06T01:00:29.762Z,95061.09
2019-03-06T01:02:57.199Z,95044.02
2019-03-06T01:05:25.039Z,95050.02
2019-03-06T01:07:52.403Z,95054.31
2019-03-06T01:10:20.049Z,95058.56
2019-03-06T01:12:47.618Z,95057.38
2019-03-06T01:15:15.224Z,95055.65
2019-03-06T01:17:42.793Z,95047.00
2019-03-06T01:20:10.535Z,95054.31
2019-03-06T01:22:38.015Z,95047.52
2019-03-06T01:25:06.095Z,95048.79
2019-03-06T01:27:33.466Z,95046.30
2019-03-06T01:30:00.963Z,95040.45
2019-03-06T01:32:29.003Z,95050.52
2019-03-06T01:35:14.796Z,95048.86
2019-03-06T01:37:53.461Z,95042.95
2019-03-06T01:40:34.496Z,95047.33
2019-03-06T01:43:08.022Z,95037.45
2019-03-06T01:45:35.456Z,95024.69
2019-03-06T01:48:02.905Z,95025.56
2019-03-06T01:50:30.566Z,95021.55
2019-03-06T01:52:58.008Z,95023.74
2019-03-06T01:55:25.377Z,95022.69
2019-03-06T01:57:52.932Z,95034.81
2019-03-06T02:00:21.044Z,95033.79
2019-03-06T02:02:48.746Z,95038.01
2019-03-06T02:05:16.647Z,95038.80
2019-03-06T02:07:44.335Z,95039.41
2019-03-06T02:10:12.540Z,95035.22
2019-03-06T02:12:39.999Z,95036.14
2019-03-06T02:15:08.644Z,95035.72
2019-03-06T02:17:36.324Z,95034.22
2019-03-06T02:20:04.962Z,95028.07
2019-03-06T02:22:32.510Z,95029.18
2019-03-06T02:24:59.960Z,95024.64
2019-03-06T02:27:27.445Z,95030.99
2019-03-06T02:29:55.020Z,95036.28
2019-03-06T02:32:22.518Z,95037.13
2019-03-06T02:34:49.992Z,95037.06
2019-03-06T02:37:17.409Z,95030.11
2019-03-06T02:39:44.873Z,95033.97
2019-03-06T02:42:12.321Z,95036.19
2019-03-06T02:44:40.232Z,95037.06
2019-03-06T02:47:07.743Z,95034.02
2019-03-06T02:49:35.188Z,95043.10
2019-03-06T02:52:02.664Z,95049.24
2019-03-06T02:54:30.102Z,95046.81
2019-03-06T02:56:57.559Z,95049.82
2019-03-06T02:59:34.242Z,95048.98
2019-03-06T03:02:27.453Z,95046.80
2019-03-06T03:05:20.796Z,95055.80
2019-03-06T03:07:48.290Z,95052.34
2019-03-06T03:10:15.819Z,95057.72
2019-03-06T03:12:43.291Z,95071.83
2019-03-06T03:15:10.842Z,95059.39
2019-03-06T03:17:38.268Z,95060.06
2019-03-06T03:20:05.932Z,95063.59
2019-03-06T03:22:33.453Z,95060.80
2019-03-06T03:25:00.933Z,95064.59
2019-03-06T03:27:28.405Z,95069.64
2019-03-06T03:29:55.988Z,95071.99
2019-03-06T03:32:23.502Z,95075.61
2019-03-06T03:34:50.951Z,95076.45
2019-03-06T03:37:18.323Z,95078.05
2019-03-06T03:39:45.770Z,95089.64
2019-03-06T03:42:13.262Z,95078.20
2019-03-06T03:44:40.658Z,95074.84
2019-03-06T03:47:08.111Z,95079.39
2019-03-06T03:49:35.593Z,95075.48
2019-03-06T03:52:03.073Z,95068.94
2019-03-06T03:54:30.490Z,95074.42
2019-03-06T03:56:57.881Z,95075.19
2019-03-06T03:59:25.559Z,95071.66
2019-03-06T04:01:53.247Z,95077.04
2019-03-06T04:04:20.782Z,95081.72
2019-03-06T04:06:48.424Z,95073.18
2019-03-06T04:09:15.975Z,95081.58
2019-03-06T04:11:43.361Z,95083.42
2019-03-06T04:14:11.291Z,95076.22
2019-03-06T04:16:38.731Z,95084.61
2019-03-06T04:19:06.308Z,95083.75
2019-03-06T04:21:33.867Z,95084.27
2019-03-06T04:24:01.474Z,95078.89
2019-03-06T04:26:29.211Z,95086.61
2019-03-06T04:28:56.975Z,95090.71
2019-03-06T04:31:24.446Z,95079.02
2019-03-06T04:33:51.820Z,95084.49
2019-03-06T04:36:19.247Z,95078.95
2019-03-06T04:38:46.689Z,95087.45
2019-03-06T04:41:14.258Z,95088.36
2019-03-06T04:43:41.949Z,95101.91
2019-03-06T04:46:09.501Z,95108.13
2019-03-06T04:48:36.924Z,95107.11
2019-03-06T04:51:04.306Z,95106.94
2019-03-06T04:53:31.751Z,95140.55
2019-03-06T04:55:59.193Z,95143.58
2019-03-06T04:58:26.615Z,95140.72
2019-03-06T05:00:54.191Z,95140.72
2019-03-06T05:03:21.726Z,95145.42
2019-03-06T05:05:49.241Z,95154.13
2019-03-06T05:08:16.613Z,95161.38
2019-03-06T05:10:44.256Z,95154.03
2019-03-06T05:13:11.713Z,95156.59
2019-03-06T05:15:39.273Z,95154.02
2019-03-06T05:18:20.592Z,95148.92
2019-03-06T05:20:48.094Z,95148.42
2019-03-06T05:23:15.647Z,95146.40
2019-03-06T05:25:43.152Z,95155.47
2019-03-06T05:28:10.661Z,95160.73
2019-03-06T05:30:38.169Z,95160.33
2019-03-06T05:33:06.639Z,95154.45
2019-03-06T05:36:17.689Z,95155.50
2019-03-06T05:39:01.278Z,95154.00
2019-03-06T05:41:28.836Z,95152.39
2019-03-06T05:43:56.794Z,95151.58
2019-03-06T05:46:24.286Z,95160.52
2019-03-06T05:48:52.252Z,95164.59
2019-03-06T05:51:19.933Z,95175.19
2019-03-06T05:53:47.987Z,95176.32
2019-03-06T05:56:15.509Z,95173.41
2019-03-06T05:58:42.984Z,95185.19
2019-03-06T06:01:10.516Z,95181.55
2019-03-06T06:03:37.918Z,95178.52
2019-03-06T06:06:05.518Z,95173.02
2019-03-06T06:08:33.077Z,95178.17
2019-03-06T06:11:00.654Z,95187.72
2019-03-06T06:13:28.121Z,95195.80
2019-03-06T06:15:55.800Z,95195.91
2019-03-06T06:18:23.333Z,95189.41
2019-03-06T06:21:00.564Z,95193.88
2019-03-06T06:23:43.786Z,95197.92
2019-03-06T06:26:11.380Z,95193.23
2019-03-06T06:28:39.063Z,95211.44
2019-03-06T06:31:06.578Z,95208.88
2019-03-06T06:33:34.546Z,95206.82
2019-03-06T06:36:01.974Z,95211.20
2019-03-06T06:38:29.412Z,95205.05
2019-03-06T06:40:56.867Z,95212.05
2019-03-06T06:43:24.380Z,95221.48
2019-03-06T06:45:51.841Z,95222.13
2019-03-06T06:48:20.745Z,95222.13
2019-03-06T06:51:01.647Z,95219.77
2019-03-06T06:54:06.216Z,95228.69
2019-03-06T06:57:13.302Z,95236.45
2019-03-06T07:00:14.810Z,95236.63
2019-03-06T07:03:39.745Z,95233.16
2019-03-06T07:06:26.715Z,95244.83
2019-03-06T07:09:06.829Z,95240.59
2019-03-06T07:11:41.598Z,95239.58
2019-03-06T07:14:19.233Z,95238.62
2019-03-06T07:17:06.230Z,95248.33
2019-03-06T07:19:40.962Z,95249.70
2019-03-06T07:22:46.334Z,95249.25
2019-03-06T07:25:32.151Z,95254.77
2019-03-06T07:28:04.599Z,95254.55
2019-03-06T07:30:50.597Z,95265.47
2019-03-06T07:33:37.633Z,95265.67
2019-03-06T07:36:33.640Z,95270.59
2019-03-06T07:39:19.530Z,95265.25
2019-03-06T07:42:15.538Z,95272.44
2019-03-06T07:45:37.703Z,95270.56
2019-03-06T07:48:14.216Z,95273.14
2019-03-06T07:50:56.885Z,95274.19
2019-03-06T07:54:24.146Z,95270.56
2019-03-06T07:56:55.501Z,95271.41
2019-03-06T07:59:23.137Z,95275.98
2019-03-06T08:01:54.302Z,95279.81
2019-03-06T08:04:21.786Z,95275.98
2019-03-06T08:07:02.616Z,95281.38
2019-03-06T08:09:30.125Z,95283.87
2019-03-06T08:12:07.152Z,95288.41
2019-03-06T08:14:59.716Z,95296.75
2019-03-06T08:17:32.926Z,95289.30
2019-03-06T08:20:14.010Z,95303.47
2019-03-06T08:23:00.911Z,95302.22
2019-03-06T08:25:47.104Z,95295.02
2019-03-06T08:28:14.767Z,95293.81
2019-03-06T08:30:49.876Z,95302.55
2019-03-06T08:33:18.382Z,95291.33
2019-03-06T08:35:46.168Z,95295.22
2019-03-06T08:38:13.532Z,95301.79
2019-03-06T08:40:41.146Z,95296.67
2019-03-06T08:43:09.889Z,95296.88
2019-03-06T08:45:47.634Z,95303.06
2019-03-06T08:48:26.986Z,95298.79
2019-03-06T08:51:00.367Z,95303.95
2019-03-06T08:53:35.322Z,95293.71
2019-03-06T08:56:31.156Z,95295.43
2019-03-06T08:59:06.908Z,95302.47
2019-03-06T09:02:00.440Z,95305.17
2019-03-06T09:04:48.673Z,95301.26
2019-03-06T09:07:23.828Z,95304.29
2019-03-06T09:10:01.446Z,95305.27
2019-03-06T09:13:06.573Z,95317.98
2019-03-06T09:15:52.462Z,95316.47
2019-03-06T09:18:38.496Z,95324.36
2019-03-06T09:21:13.295Z,95316.62
2019-03-06T09:24:18.392Z,95314.58
2019-03-06T09:26:51.822Z,95322.94
2019-03-06T09:29:44.878Z,95322.23
2019-03-06T09:32:43.866Z,95322.84
2019-03-06T09:35:27.294Z,95324.37
2019-03-06T09:38:13.022Z,95313.81
2019-03-06T09:41:11.540Z,95319.53
2019-03-06T09:44:04.346Z,95315.84
2019-03-06T09:46:54.297Z,95322.14
2019-03-06T09:49:34.087Z,95307.84
2019-03-06T09:52:14.056Z,95320.27
2019-03-06T09:54:59.620Z,95315.84
2019-03-06T09:57:36.600Z,95320.81
2019-03-06T10:00:34.209Z,95320.08
2019-03-06T10:03:14.428Z,95315.56
2019-03-06T10:06:07.668Z,95314.85
2019-03-06T10:08:41.670Z,95317.23
2019-03-06T10:11:31.517Z,95317.47
2019-03-06T10:14:04.045Z,95322.50
2019-03-06T10:16:53.805Z,95314.40
2019-03-06T10:19:29.600Z,95305.52
2019-03-06T10:21:59.202Z,95316.48
2019-03-06T10:24:26.862Z,95302.50
2019-03-06T10:26:54.250Z,95298.05
2019-03-06T10:29:22.068Z,95308.89
2019-03-06T10:31:49.602Z,95303.44
2019-03-06T10:34:17.418Z,95310.06
2019-03-06T10:36:44.833Z,95305.89
2019-03-06T10:39:14.936Z,95304.39
2019-03-06T10:41:42.492Z,95304.59
2019-03-06T10:44:10.331Z,95295.22
2019-03-06T10:46:37.902Z,95284.88
2019-03-06T10:49:05.518Z,95280.53
2019-03-06T10:51:33.091Z,95288.46
2019-03-06T10:54:00.606Z,95285.20
2019-03-06T10:56:28.509Z,95286.69
2019-03-06T10:58:56.947Z,95285.34
2019-03-06T11:01:24.604Z,95273.20
2019-03-06T11:04:08.789Z,95268.56
2019-03-06T11:06:36.553Z,95272.66
2019-03-06T11:09:07.785Z,95268.97
2019-03-06T11:11:35.359Z,95263.89
2019-03-06T11:14:06.472Z,95270.63
2019-03-06T11:16:38.294Z,95262.59
2019-03-06T11:19:03.390Z,95275.41
2019-03-06T11:21:30.916Z,95266.19
2019-03-06T11:23:58.374Z,95267.03
2019-03-06T11:26:26.725Z,95264.10
2019-03-06T11:28:54.285Z,95252.83
2019-03-06T11:31:22.062Z,95261.02
2019-03-06T11:33:49.508Z,95258.36
2019-03-06T11:36:17.586Z,95249.72
2019-03-06T11:38:45.084Z,95253.42
2019-03-06T11:41:12.571Z,95253.77
2019-03-06T11:43:40.225Z,95253.36
2019-03-06T11:46:08.539Z,95246.86
2019-03-06T11:48:36.245Z,95256.31
2019-03-06T11:51:04.103Z,95252.39
2019-03-06T11:53:32.950Z,95247.42
2019-03-06T11:56:00.813Z,95258.14
2019-03-06T11:58:28.411Z,95251.90
2019-03-06T12:00:56.008Z,95253.91
2019-03-06T12:03:23.787Z,95253.48
2019-03-06T12:05:51.618Z,95256.74
2019-03-06T12:08:19.545Z,95239.73
2019-03-06T12:10:47.444Z,95257.68
2019-03-06T12:13:15.930Z,95261.34
2019-03-06T12:15:45.994Z,95262.42
2019-03-06T12:18:14.230Z,95263.09
2019-03-06T12:20:42.213Z,95259.95
2019-03-06T12:23:09.652Z,95253.88
2019-03-06T12:25:37.910Z,95252.01
2019-03-06T12:28:07.061Z,95245.49
2019-03-06T12:30:34.904Z,95254.11
2019-03-06T12:33:02.731Z,95250.63
2019-03-06T12:35:30.132Z,95247.13
2019-03-06T12:37:57.690Z,95244.73
2019-03-06T12:40:25.800Z,95249.27
2019-03-06T12:42:53.220Z,95247.16
2019-03-06T12:45:20.928Z,95250.78
2019-03-06T12:47:55.211Z,95252.56
2019-03-06T12:50:20.405Z,95247.97
2019-03-06T12:52:47.983Z,95254.11
2019-03-06T12:55:15.541Z,95263.02
2019-03-06T12:57:43.052Z,95264.85
2019-03-06T13:00:17.775Z,95262.71
2019-03-06T13:02:45.599Z,95264.33
2019-03-06T13:05:13.554Z,95262.02
2019-03-06T13:07:41.072Z,95270.59
2019-03-06T13:10:09.733Z,95274.93
2019-03-06T13:12:38.242Z,95273.64
2019-03-06T13:15:07.348Z,95259.70
2019-03-06T13:17:36.380Z,95258.73
2019-03-06T13:20:06.439Z,95266.03
2019-03-06T13:22:34.022Z,95267.23
2019-03-06T13:25:01.635Z,95276.33
2019-03-06T13:27:29.074Z,95281.67
2019-03-06T13:29:56.649Z,95265.62
2019-03-06T13:32:27.198Z,95269.78
2019-03-06T13:34:59.639Z,95271.98
2019-03-06T13:37:27.191Z,95268.00
2019-03-06T13:39:54.724Z,95274.55
2019-03-06T13:42:22.274Z,95263.19
2019-03-06T13:44:49.796Z,95262.13
2019-03-06T13:47:17.413Z,95279.17
2019-03-06T13:49:44.857Z,95282.32
2019-03-06T13:52:12.656Z,95280.58
2019-03-06T13:54:40.135Z,95277.79
2019-03-06T13:57:07.835Z,95281.52
2019-03-06T13:59:35.357Z,95280.11
2019-03-06T14:02:02.952Z,95287.33
2019-03-06T14:04:31.009Z,95277.06
2019-03-06T14:06:58.665Z,95278.11
2019-03-06T14:09:26.512Z,95278.86
2019-03-06T14:11:54.000Z,95285.69
2019-03-06T14:14:21.390Z,95284.32
2019-03-06T14:16:48.885Z,95269.11
2019-03-06T14:19:16.408Z,95281.03
2019-03-06T14:21:43.977Z,95278.50
2019-03-06T14:24:11.553Z,95284.50
2019-03-06T14:26:39.421Z,95290.93
2019-03-06T14:29:07.089Z,95282.68
2019-03-06T14:31:34.544Z,95280.30
2019-03-06T14:34:02.127Z,95275.80
2019-03-06T14:36:30.380Z,95287.59
2019-03-06T14:38:57.927Z,95285.38
2019-03-06T14:41:25.748Z,95289.91
2019-03-06T14:43:53.230Z,95291.08
2019-03-06T14:46:20.735Z,95289.64
2019-03-06T14:48:48.258Z,95290.06
2019-03-06T14:51:15.888Z,95289.44
2019-03-06T14:53:43.538Z,95290.02
2019-03-06T14:56:11.203Z,95297.83
2019-03-06T14:58:38.759Z,95278.66
2019-03-06T15:01:06.537Z,95283.57
2019-03-06T15:03:33.967Z,95287.19
2019-03-06T15:06:01.731Z,95297.73
2019-03-06T15:08:29.572Z,95301.86
2019-03-06T15:10:57.205Z,95301.31
2019-03-06T15:13:24.720Z,95302.05
2019-03-06T15:15:52.684Z,95302.94
2019-03-06T15:18:20.535Z,95309.92
2019-03-06T15:20:47.922Z,95313.61
2019-03-06T15:23:15.409Z,95311.95
2019-03-06T15:25:42.903Z,95311.55
2019-03-06T15:28:10.601Z,95310.00
2019-03-06T15:30:39.889Z,95314.67
2019-03-06T15:33:07.765Z,95315.15
2019-03-06T15:35:35.217Z,95332.39
2019-03-06T15:38:04.491Z,95326.91
2019-03-06T15:40:32.537Z,95330.28
2019-03-06T15:43:00.315Z,95324.48
2019-03-06T15:45:28.899Z,95332.63
2019-03-06T15:47:56.777Z,95336.81
2019-03-06T15:50:24.516Z,95340.68
2019-03-06T15:52:52.184Z,95338.30
2019-03-06T15:55:22.995Z,95335.23
2019-03-06T15:57:50.454Z,95341.70
2019-03-06T16:00:32.214Z,95342.85
2019-03-06T16:02:59.945Z,95349.49
2019-03-06T16:05:27.338Z,95362.16
2019-03-06T16:07:56.488Z,95357.52
2019-03-06T16:10:24.264Z,95352.27
2019-03-06T16:12:51.855Z,95355.52
2019-03-06T16:15:20.057Z,95362.20
2019-03-06T16:17:47.527Z,95373.86
2019-03-06T16:20:16.441Z,95369.94
2019-03-06T16:22:44.719Z,95379.27
2019-03-06T16:25:13.289Z,95383.21
2019-03-06T16:27:40.879Z,95387.92
2019-03-06T16:30:10.390Z,95385.66
2019-03-06T16:32:37.976Z,95397.97
2019-03-06T16:35:07.432Z,95394.08
2019-03-06T16:37:35.462Z,95397.02
2019-03-06T16:40:08.026Z,95396.13
2019-03-06T16:42:35.651Z,95395.86
2019-03-06T16:45:04.129Z,95398.79
2019-03-06T16:47:31.697Z,95401.99
2019-03-06T16:49:59.175Z,95403.51
2019-03-06T16:52:26.694Z,95403.54
2019-03-06T16:54:54.388Z,95415.22
2019-03-06T16:57:23.859Z,95415.69
2019-03-06T16:59:51.728Z,95424.51
2019-03-06T17:02:19.157Z,95427.73
2019-03-06T17:04:46.880Z,95427.93
2019-03-06T17:07:14.424Z,95437.41
2019-03-06T17:09:41.854Z,95430.36
2019-03-06T17:12:09.709Z,95435.89
2019-03-06T17:14:37.611Z,95439.62
2019-03-06T17:17:05.610Z,95443.94
2019-03-06T17:19:33.127Z,95443.53
2019-03-06T17:22:00.777Z,95440.73
2019-03-06T17:24:28.387Z,95446.03
2019-03-06T17:26:55.776Z,95455.59
2019-03-06T17:29:23.276Z,95446.97
2019-03-06T17:31:50.828Z,95449.55
2019-03-06T17:34:18.363Z,95455.72
2019-03-06T17:36:46.312Z,95473.98
2019-03-06T17:39:15.397Z,95452.67
2019-03-06T17:41:42.930Z,95459.19
2019-03-06T17:44:11.222Z,95464.80
2019-03-06T17:46:38.891Z,95470.83
2019-03-06T17:49:06.674Z,95463.02
2019-03-06T17:51:34.268Z,95456.97
2019-03-06T17:54:01.824Z,95464.67
2019-03-06T17:56:29.604Z,95468.88
2019-03-06T17:58:57.093Z,95467.04
2019-03-06T18:01:24.737Z,95465.06
2019-03-06T18:04:05.427Z,95465.94
2019-03-06T18:06:32.932Z,95468.75
2019-03-06T18:09:00.460Z,95460.02
2019-03-06T18:11:27.948Z,95462.27
2019-03-06T18:13:55.495Z,95456.38
2019-03-06T18:16:23.072Z,95456.84
2019-03-06T18:18:50.888Z,95448.30
2019-03-06T18:21:18.392Z,95454.02
2019-03-06T18:23:45.915Z,95453.81
2019-03-06T18:26:13.465Z,95461.59
2019-03-06T18:28:40.928Z,95460.29
2019-03-06T18:31:08.625Z,95469.36
2019-03-06T18:33:36.164Z,95469.06
2019-03-06T18:36:03.772Z,95466.55
2019-03-06T18:38:31.221Z,95472.41
2019-03-06T18:40:58.785Z,95470.95
2019-03-06T18:43:26.339Z,95468.97
2019-03-06T18:45:53.823Z,95468.49
2019-03-06T18:48:21.445Z,95468.67
2019-03-06T18:50:49.053Z,95465.56
2019-03-06T18:53:16.791Z,95470.20
2019-03-06T18:55:44.232Z,95469.58
2019-03-06T18:58:13.078Z,95468.84
2019-03-06T19:00:41.136Z,95479.09
2019-03-06T19:03:10.236Z,95475.91
2019-03-06T19:05:37.860Z,95470.67
2019-03-06T19:08:05.432Z,95469.72
2019-03-06T19:10:33.735Z,95470.38
2019-03-06T19:13:01.237Z,95467.28
2019-03-06T19:15:29.207Z,95471.20
2019-03-06T19:17:57.041Z,95470.62
2019-03-06T19:20:24.751Z,95488.01
2019-03-06T19:22:53.075Z,95489.52
2019-03-06T19:25:21.073Z,95486.86
2019-03-06T19:27:49.100Z,95475.49
2019-03-06T19:30:18.648Z,95479.98
2019-03-06T19:32:46.647Z,95484.83
2019-03-06T19:35:14.631Z,95486.39
2019-03-06T19:37:42.287Z,95483.59
2019-03-06T19:40:10.055Z,95483.42
2019-03-06T19:42:37.506Z,95495.95
2019-03-06T19:45:05.638Z,95500.62
2019-03-06T19:47:33.104Z,95506.30
2019-03-06T19:50:00.666Z,95506.89
2019-03-06T19:52:28.189Z,95508.79
2019-03-06T19:54:55.628Z,95508.79
2019-03-06T19:57:23.732Z,95503.22
2019-03-06T19:59:51.612Z,95512.55
2019-03-06T20:02:19.281Z,95511.45
2019-03-06T20:04:46.823Z,95506.66
2019-03-06T20:07:14.288Z,95499.02
2019-03-06T20:09:41.764Z,95513.53
2019-03-06T20:12:09.332Z,95514.41
2019-03-06T20:14:37.051Z,95521.80
2019-03-06T20:17:04.758Z,95520.06
2019-03-06T20:19:32.460Z,95529.29
2019-03-06T20:22:02.036Z,95518.06
2019-03-06T20:24:29.740Z,95518.90
2019-03-06T20:26:57.159Z,95528.46
2019-03-06T20:29:25.039Z,95527.00
2019-03-06T20:31:53.088Z,95528.15
2019-03-06T20:34:20.579Z,95530.23
2019-03-06T20:36:48.257Z,95526.01
2019-03-06T20:39:16.387Z,95526.75
2019-03-06T20:41:44.120Z,95526.45
2019-03-06T20:44:11.799Z,95526.80
2019-03-06T20:46:39.263Z,95531.05
2019-03-06T20:49:06.782Z,95539.41
2019-03-06T20:51:34.377Z,95534.40
2019-03-06T20:54:02.157Z,95534.94
2019-03-06T20:56:29.748Z,95546.66
2019-03-06T20:58:57.867Z,95544.00
2019-03-06T21:01:25.913Z,95537.06
2019-03-06T21:03:53.586Z,95544.55
2019-03-06T21:06:21.806Z,95557.50
2019-03-06T21:08:49.245Z,95546.92
2019-03-06T21:11:16.876Z,95549.28
2019-03-06T21:13:44.425Z,95548.13
2019-03-06T21:16:11.811Z,95542.77
2019-03-06T21:18:39.507Z,95543.96
2019-03-06T21:21:07.059Z,95539.95
2019-03-06T21:23:34.566Z,95549.94
2019-03-06T21:26:02.166Z,95553.36
2019-03-06T21:28:29.605Z,95542.00
2019-03-06T21:30:57.181Z,95551.48
2019-03-06T21:33:24.644Z,95546.69
2019-03-06T21:35:52.415Z,95554.89
2019-03-06T21:38:20.413Z,95549.59
2019-03-06T21:40:47.852Z,95542.98
2019-03-06T21:43:15.313Z,95547.48
2019-03-06T21:45:42.804Z,95547.33
2019-03-06T21:48:10.291Z,95546.83
2019-03-06T21:50:37.754Z,95547.33
2019-03-06T21:53:05.317Z,95541.59
2019-03-06T21:55:32.759Z,95551.72
2019-03-06T21:58:00.224Z,95556.64
2019-03-06T22:00:27.605Z,95557.13
2019-03-06T22:02:55.102Z,95567.58
2019-03-06T22:05:22.642Z,95561.19
2019-03-06T22:07:50.860Z,95566.80
2019-03-06T22:10:18.974Z,95563.02
2019-03-06T22:12:46.402Z,95562.63
2019-03-06T22:15:14.216Z,95567.23
2019-03-06T22:17:41.682Z,95576.32
2019-03-06T22:20:10.157Z,95573.45
2019-03-06T22:22:37.631Z,95574.61
2019-03-06T22:25:05.416Z,95572.36
2019-03-06T22:27:33.286Z,95576.72
2019-03-06T22:30:00.724Z,95568.08
2019-03-06T22:32:28.121Z,95573.20
2019-03-06T22:34:55.637Z,95568.27
2019-03-06T22:37:23.117Z,95566.55
2019-03-06T22:39:50.552Z,95572.55
2019-03-06T22:42:17.976Z,95565.25
2019-03-06T22:44:45.429Z,95569.83
2019-03-06T22:47:12.906Z,95570.87
2019-03-06T22:49:40.367Z,95567.34
2019-03-06T22:52:07.773Z,95564.19
2019-03-06T22:54:35.386Z,95564.08
2019-03-06T22:57:02.842Z,95555.43
2019-03-06T22:59:30.276Z,95555.01
2019-03-06T23:01:58.116Z,95564.44
2019-03-06T23:04:25.581Z,95566.77
2019-03-06T23:06:53.054Z,95564.42
2019-03-06T23:09:20.687Z,95567.80
2019-03-06T23:11:48.253Z,95569.66
2019-03-06T23:14:15.816Z,95557.46
2019-03-06T23:16:43.214Z,95563.10
2019-03-06T23:19:10.631Z,95548.63
2019-03-06T23:21:38.217Z,95555.94
2019-03-06T23:24:05.642Z,95547.41
2019-03-06T23:26:42.245Z,95548.11
2019-03-06T23:29:02.545Z,95548.69
2019-03-06T23:31:29.985Z,95551.52
2019-03-06T23:33:57.572Z,95549.00
2019-03-06T23:36:25.025Z,95545.73
2019-03-06T23:38:52.476Z,95544.03
2019-03-06T23:41:19.886Z,95550.70
2019-03-06T23:43:47.388Z,95542.89
2019-03-06T23:46:14.847Z,95542.37
2019-03-06T23:48:42.308Z,95540.50
2019-03-06T23:51:16.353Z,95553.88
2019-03-06T23:53:54.444Z,95555.58
2019-03-06T23:56:22.010Z,95545.59
2019-03-06T23:58:49.446Z,95544.20
